Time;durP1;ratioP1;P1;durP2;ratioP2;P2;SDS_P1;SDS_P2;PMS_P1;PMS_P2;Temp;Humidity;BMP_temperature;BMP_pressure;BME280_temperature;BME280_humidity;BME280_pressure;Samples;Min_cycle;Max_cycle;Signal;HPM_P1;HPM_P2
2022/12/03 00:01:48;;;;;;;13.68;6.63;;;1.80;99.90;;;;;;5022668;28;20559;-65
2022/12/03 00:04:14;;;;;;;10.25;5.15;;;1.80;99.90;;;;;;5012423;28;20083;-63
2022/12/03 00:06:39;;;;;;;10.30;5.05;;;1.80;99.90;;;;;;5028388;28;20709;-65
2022/12/03 00:09:05;;;;;;;10.75;5.07;;;1.80;99.90;;;;;;5031049;28;20034;-66
2022/12/03 00:11:31;;;;;;;9.77;4.63;;;1.80;99.90;;;;;;5022417;28;20033;-64
2022/12/03 00:13:56;;;;;;;9.77;4.75;;;1.80;99.90;;;;;;5027328;28;20790;-65
2022/12/03 00:16:22;;;;;;;10.35;5.07;;;1.90;99.90;;;;;;5027328;28;20744;-66
2022/12/03 00:18:47;;;;;;;8.80;4.70;;;1.90;99.90;;;;;;5029344;28;20082;-65
2022/12/03 00:21:13;;;;;;;9.77;5.10;;;1.90;99.90;;;;;;5028103;28;20018;-64
2022/12/03 00:23:38;;;;;;;9.77;5.10;;;1.90;99.90;;;;;;5022184;28;20488;-65
2022/12/03 00:26:04;;;;;;;9.95;5.38;;;1.90;99.90;;;;;;5008951;28;20025;-65
2022/12/03 00:28:30;;;;;;;8.65;5.18;;;1.90;99.90;;;;;;5009158;28;20032;-65
2022/12/03 00:30:55;;;;;;;9.63;4.80;;;2.00;99.90;;;;;;5022186;28;20087;-64
2022/12/03 00:33:21;;;;;;;9.82;4.72;;;2.00;99.90;;;;;;5030520;28;20033;-63
2022/12/03 00:35:47;;;;;;;11.85;5.60;;;1.90;99.90;;;;;;5028413;28;20026;-64
2022/12/03 00:38:12;;;;;;;9.30;5.50;;;1.90;99.90;;;;;;5012690;28;20025;-64
2022/12/03 00:40:38;;;;;;;8.32;4.47;;;2.00;99.90;;;;;;5025401;28;20395;-66
2022/12/03 00:43:04;;;;;;;9.82;4.68;;;2.00;99.90;;;;;;5001421;28;20026;-64
2022/12/03 00:45:29;;;;;;;10.38;5.10;;;2.00;99.90;;;;;;5025737;28;20067;-65
2022/12/03 00:47:55;;;;;;;10.93;5.25;;;2.00;99.90;;;;;;5020063;28;20032;-64
2022/12/03 00:50:20;;;;;;;10.38;5.05;;;1.90;99.90;;;;;;5015372;28;20029;-64
2022/12/03 00:52:46;;;;;;;7.93;4.50;;;1.90;99.90;;;;;;5018690;28;20037;-64
2022/12/03 00:55:12;;;;;;;9.27;5.30;;;1.90;99.90;;;;;;5003586;28;20033;-65
2022/12/03 00:57:37;;;;;;;10.38;5.13;;;1.90;99.90;;;;;;5016324;28;21728;-63
2022/12/03 01:00:05;;;;;;;12.65;5.82;;;1.90;99.90;;;;;;5000429;28;20399;-66
2022/12/03 01:02:30;;;;;;;9.85;4.82;;;2.00;99.90;;;;;;5019050;28;20078;-65
2022/12/03 01:04:56;;;;;;;10.23;5.28;;;2.00;99.90;;;;;;5019482;28;20033;-66
2022/12/03 01:07:21;;;;;;;10.75;5.28;;;2.00;99.90;;;;;;5021998;28;20033;-64
2022/12/03 01:09:47;;;;;;;8.52;4.60;;;2.10;99.90;;;;;;5028070;28;20033;-65
2022/12/03 01:12:13;;;;;;;8.40;4.10;;;2.10;99.90;;;;;;5028252;28;20036;-63
2022/12/03 01:14:39;;;;;;;11.88;5.43;;;2.10;99.90;;;;;;5024836;28;20036;-65
2022/12/03 01:17:05;;;;;;;14.77;6.22;;;2.10;99.90;;;;;;5029119;28;20092;-62
2022/12/03 01:19:32;;;;;;;7.93;4.47;;;2.10;99.90;;;;;;5027192;28;20586;-65
2022/12/03 01:21:58;;;;;;;9.95;5.30;;;2.10;99.90;;;;;;5027244;28;20021;-64
2022/12/03 01:24:24;;;;;;;11.23;5.22;;;2.10;99.90;;;;;;5025985;28;20032;-63
2022/12/03 01:26:49;;;;;;;10.88;5.47;;;2.00;99.90;;;;;;5029538;28;20025;-66
2022/12/03 01:29:15;;;;;;;12.73;5.57;;;2.00;99.90;;;;;;5029133;28;20485;-64
2022/12/03 01:34:24;;;;;;;10.20;5.70;;;2.00;99.90;;;;;;5025144;28;20048;-66
2022/12/03 01:36:51;;;;;;;11.27;5.90;;;2.00;99.90;;;;;;5022991;28;20124;-64
2022/12/03 01:39:17;;;;;;;15.98;6.90;;;2.10;99.90;;;;;;5022953;28;20024;-65
2022/12/03 01:41:43;;;;;;;12.15;6.10;;;2.00;99.90;;;;;;5020359;28;20029;-66
2022/12/03 01:44:25;;;;;;;12.38;6.13;;;2.00;99.90;;;;;;5009152;28;20033;-64
2022/12/03 01:46:54;;;;;;;13.82;5.93;;;2.00;99.90;;;;;;5004558;28;20042;-65
2022/12/03 01:49:29;;;;;;;14.35;7.13;;;2.00;99.90;;;;;;5017077;28;20030;-64
2022/12/03 01:51:55;;;;;;;12.98;6.57;;;2.00;99.90;;;;;;5016334;28;20026;-64
2022/12/03 01:54:25;;;;;;;13.65;6.53;;;2.00;99.90;;;;;;5021058;28;20041;-63
2022/12/03 01:56:53;;;;;;;15.43;7.13;;;2.00;99.90;;;;;;5015090;28;20499;-65
2022/12/03 01:59:21;;;;;;;14.50;7.20;;;2.00;99.90;;;;;;5019015;28;20084;-65
2022/12/03 02:01:47;;;;;;;14.85;7.57;;;2.10;99.90;;;;;;5014828;28;20575;-66
2022/12/03 02:04:15;;;;;;;14.98;7.13;;;2.00;99.90;;;;;;5017524;28;20033;-62
2022/12/03 02:06:42;;;;;;;13.75;7.13;;;2.10;99.90;;;;;;5020398;28;20068;-64
2022/12/03 02:09:11;;;;;;;14.65;7.03;;;2.00;99.90;;;;;;5019050;28;20032;-65
2022/12/03 02:11:42;;;;;;;18.42;7.75;;;2.10;99.90;;;;;;5025959;28;20044;-66
2022/12/03 02:14:11;;;;;;;19.08;9.25;;;2.20;99.90;;;;;;5026920;28;20120;-67
2022/12/03 02:16:38;;;;;;;15.43;7.30;;;2.10;99.90;;;;;;5005928;28;20075;-65
2022/12/03 02:19:13;;;;;;;17.70;7.93;;;2.10;99.90;;;;;;5021035;28;20055;-65
2022/12/03 02:22:06;;;;;;;15.00;7.35;;;2.10;99.90;;;;;;5023298;28;20039;-64
2022/12/03 02:25:04;;;;;;;16.17;7.63;;;2.20;99.90;;;;;;4976979;28;20053;-64
2022/12/03 02:27:30;;;;;;;16.00;7.05;;;2.20;99.90;;;;;;5018152;28;20038;-64
2022/12/03 02:29:55;;;;;;;14.93;7.10;;;2.20;99.90;;;;;;5030559;28;20414;-64
2022/12/03 02:32:22;;;;;;;17.45;7.63;;;2.20;99.90;;;;;;5015265;28;20048;-65
2022/12/03 02:34:48;;;;;;;17.67;8.38;;;2.20;99.90;;;;;;5029687;28;20586;-65
2022/12/03 02:37:23;;;;;;;20.35;9.23;;;2.10;99.90;;;;;;5032999;28;20093;-65
2022/12/03 02:39:53;;;;;;;19.23;9.00;;;2.20;99.90;;;;;;5025685;28;20495;-64
2022/12/03 02:42:35;;;;;;;17.65;8.73;;;2.20;99.90;;;;;;5032045;28;20022;-64
2022/12/03 02:45:06;;;;;;;17.63;9.07;;;2.10;99.90;;;;;;5011884;28;20041;-65
2022/12/03 02:47:35;;;;;;;18.48;8.68;;;2.20;99.90;;;;;;5032801;28;20470;-65
2022/12/03 02:50:01;;;;;;;17.73;8.57;;;2.10;99.90;;;;;;5031337;28;20080;-65
2022/12/03 02:52:27;;;;;;;23.80;8.98;;;2.10;99.90;;;;;;5030179;28;20041;-64
2022/12/03 02:54:53;;;;;;;15.98;8.82;;;2.20;99.90;;;;;;5028109;28;20545;-66
2022/12/03 02:57:19;;;;;;;25.10;10.63;;;2.20;99.90;;;;;;5030702;28;20128;-67
2022/12/03 02:59:45;;;;;;;18.63;8.93;;;2.10;99.90;;;;;;5029090;28;20689;-65
2022/12/03 03:02:12;;;;;;;19.55;9.27;;;2.10;99.90;;;;;;5032694;28;20113;-65
2022/12/03 03:04:39;;;;;;;19.75;8.88;;;2.20;99.90;;;;;;5027460;28;20061;-65
2022/12/03 03:07:05;;;;;;;20.42;8.75;;;2.20;99.90;;;;;;5030295;28;20025;-66
2022/12/03 03:09:32;;;;;;;19.83;8.50;;;2.20;99.90;;;;;;5029531;28;20566;-64
2022/12/03 03:11:58;;;;;;;20.25;8.55;;;2.10;99.90;;;;;;5030657;28;20041;-66
2022/12/03 03:14:24;;;;;;;19.83;8.68;;;2.10;99.90;;;;;;5027999;28;20483;-65
2022/12/03 03:16:54;;;;;;;17.17;7.38;;;2.10;99.90;;;;;;5013101;28;20040;-64
2022/12/03 03:19:27;;;;;;;19.85;9.48;;;2.10;99.90;;;;;;5009114;28;20025;-66
2022/12/03 03:21:53;;;;;;;20.35;8.25;;;2.10;99.90;;;;;;5027923;28;20121;-64
2022/12/03 03:24:20;;;;;;;19.35;9.05;;;2.10;99.90;;;;;;5024549;28;20104;-65
2022/12/03 03:26:47;;;;;;;16.58;8.57;;;2.10;99.90;;;;;;5022096;28;20037;-65
2022/12/03 03:29:12;;;;;;;19.10;7.85;;;2.00;99.90;;;;;;5021890;28;20040;-65
2022/12/03 03:31:39;;;;;;;18.85;8.07;;;2.00;99.90;;;;;;5020393;28;20434;-65
2022/12/03 03:34:04;;;;;;;21.23;8.55;;;2.00;99.90;;;;;;4999663;28;20032;-64
2022/12/03 03:36:31;;;;;;;17.02;8.20;;;2.00;99.90;;;;;;5000079;28;20033;-64
2022/12/03 03:38:57;;;;;;;21.30;9.20;;;2.00;99.90;;;;;;5005721;28;20707;-64
2022/12/03 03:41:25;;;;;;;20.20;9.00;;;2.00;99.90;;;;;;5027205;28;20025;-59
2022/12/03 03:43:51;;;;;;;16.88;8.50;;;2.00;99.90;;;;;;5029301;28;20033;-65
2022/12/03 03:46:18;;;;;;;16.00;8.18;;;1.90;99.90;;;;;;5028694;28;20112;-64
2022/12/03 03:48:43;;;;;;;15.45;7.25;;;1.90;99.90;;;;;;5024995;28;20677;-65
2022/12/03 03:51:09;;;;;;;15.73;7.55;;;1.90;99.90;;;;;;5031200;28;20037;-65
2022/12/03 03:53:42;;;;;;;19.98;8.95;;;1.90;99.90;;;;;;5030728;28;20030;-64
2022/12/03 03:56:08;;;;;;;14.80;8.20;;;2.00;99.90;;;;;;5031321;28;20040;-65
2022/12/03 03:58:34;;;;;;;16.83;7.95;;;1.90;99.90;;;;;;5030538;28;20176;-66
2022/12/03 04:01:00;;;;;;;19.67;7.22;;;1.90;99.90;;;;;;5026108;28;20500;-64
2022/12/03 04:03:27;;;;;;;14.05;6.63;;;1.90;99.90;;;;;;5029537;28;20029;-65
2022/12/03 04:05:53;;;;;;;17.80;7.63;;;2.00;99.90;;;;;;5027739;28;20505;-65
2022/12/03 04:08:19;;;;;;;17.95;7.88;;;2.00;99.90;;;;;;5034074;28;20104;-65
2022/12/03 04:13:29;;;;;;;16.25;7.75;;;2.00;99.90;;;;;;5030738;28;20550;-64
2022/12/03 04:15:54;;;;;;;15.02;6.60;;;2.00;99.90;;;;;;5028745;28;20041;-65
2022/12/03 04:23:52;;;;;;;15.25;6.50;;;1.90;99.90;;;;;;5030749;28;20060;-66
2022/12/03 04:29:22;;;;;;;12.17;6.33;;;1.80;99.90;;;;;;4930393;29;20028;-63
2022/12/03 04:37:16;;;;;;;16.80;7.25;;;1.80;99.90;;;;;;5028436;28;20052;-64
2022/12/03 04:39:42;;;;;;;13.07;5.20;;;1.70;99.90;;;;;;5031049;28;20465;-65
2022/12/03 04:42:08;;;;;;;14.25;6.15;;;1.70;99.90;;;;;;5013090;28;20024;-66
2022/12/03 04:44:36;;;;;;;14.70;7.28;;;1.70;99.90;;;;;;5027804;28;20022;-65
2022/12/03 04:47:15;;;;;;;15.63;6.55;;;1.70;99.90;;;;;;5025356;28;20089;-66
2022/12/03 04:49:42;;;;;;;14.73;6.65;;;1.70;99.90;;;;;;5004038;28;20087;-65
2022/12/03 04:52:10;;;;;;;15.73;6.88;;;1.70;99.90;;;;;;5010496;28;20029;-67
2022/12/03 04:54:36;;;;;;;14.23;7.38;;;1.70;99.90;;;;;;5028075;28;20027;-64
2022/12/03 04:57:03;;;;;;;10.70;5.50;;;1.70;99.90;;;;;;5027531;28;20041;-66
2022/12/03 04:59:29;;;;;;;16.23;6.97;;;1.70;99.90;;;;;;5025392;28;20036;-65
2022/12/03 05:01:55;;;;;;;13.65;6.32;;;1.70;99.90;;;;;;5028798;28;20025;-64
2022/12/03 05:04:20;;;;;;;16.73;6.65;;;1.80;99.90;;;;;;5009049;28;20018;-65
2022/12/03 05:06:46;;;;;;;15.77;7.35;;;1.80;99.90;;;;;;5030660;28;20033;-65
2022/12/03 05:09:12;;;;;;;16.25;7.55;;;1.80;99.90;;;;;;5010529;28;20032;-65
2022/12/03 05:11:38;;;;;;;18.98;7.43;;;1.80;99.90;;;;;;5019955;28;20025;-65
2022/12/03 05:14:04;;;;;;;14.52;5.95;;;1.80;99.90;;;;;;5022023;28;20368;-65
2022/12/03 05:16:30;;;;;;;13.25;7.20;;;1.80;99.90;;;;;;5032806;28;20057;-65
2022/12/03 05:18:56;;;;;;;15.48;7.03;;;1.70;99.90;;;;;;5032125;28;20076;-64
2022/12/03 05:21:21;;;;;;;15.32;7.07;;;1.70;99.90;;;;;;5029537;28;20049;-66
2022/12/03 05:23:47;;;;;;;12.55;6.22;;;1.70;99.90;;;;;;5027365;28;20071;-63
2022/12/03 05:26:13;;;;;;;13.50;6.43;;;1.70;99.90;;;;;;5008832;28;20717;-64
2022/12/03 05:28:38;;;;;;;10.80;5.95;;;1.70;99.90;;;;;;5027946;28;20541;-65
2022/12/03 05:31:04;;;;;;;15.02;6.30;;;1.70;99.90;;;;;;5027213;28;20057;-65
2022/12/03 05:33:29;;;;;;;13.32;6.10;;;1.70;99.90;;;;;;5034879;28;20022;-64
2022/12/03 05:35:55;;;;;;;13.55;5.65;;;1.70;99.90;;;;;;5031429;28;20083;-66
2022/12/03 05:38:21;;;;;;;13.38;6.22;;;1.70;99.90;;;;;;5024211;28;20033;-66
2022/12/03 05:40:46;;;;;;;10.88;5.38;;;1.70;99.90;;;;;;5026936;28;20100;-65
2022/12/03 05:43:12;;;;;;;13.13;6.65;;;1.60;99.90;;;;;;5030774;28;20368;-63
2022/12/03 05:45:39;;;;;;;15.27;6.93;;;1.60;99.90;;;;;;5032584;28;20057;-65
2022/12/03 05:48:07;;;;;;;10.98;6.22;;;1.70;99.90;;;;;;5031355;28;20030;-66
2022/12/03 05:50:35;;;;;;;12.88;6.20;;;1.80;99.90;;;;;;5032089;28;20461;-67
2022/12/03 05:53:01;;;;;;;13.13;5.95;;;1.80;99.90;;;;;;5028581;28;20028;-66
2022/12/03 05:55:27;;;;;;;15.10;6.53;;;1.70;99.90;;;;;;5032381;28;20100;-62
2022/12/03 05:57:53;;;;;;;14.27;7.00;;;1.70;99.90;;;;;;5026284;28;20074;-65
2022/12/03 06:00:22;;;;;;;13.52;6.07;;;1.70;99.90;;;;;;5032035;28;20029;-65
2022/12/03 06:02:48;;;;;;;13.88;6.57;;;1.70;99.90;;;;;;5029895;28;20029;-65
2022/12/03 06:05:14;;;;;;;11.93;6.38;;;1.70;99.90;;;;;;5030221;28;20160;-64
2022/12/03 06:07:40;;;;;;;12.15;6.00;;;1.70;99.90;;;;;;5033604;28;20026;-66
2022/12/03 06:10:08;;;;;;;13.20;5.97;;;1.70;99.90;;;;;;5032962;28;20032;-65
2022/12/03 06:12:34;;;;;;;11.48;6.30;;;1.70;99.90;;;;;;5033085;28;20044;-64
2022/12/03 06:14:59;;;;;;;12.77;6.65;;;1.60;99.90;;;;;;5030212;28;20029;-65
2022/12/03 06:17:25;;;;;;;16.63;6.05;;;1.70;99.90;;;;;;5029486;28;20037;-62
2022/12/03 06:19:51;;;;;;;14.05;6.55;;;1.70;99.90;;;;;;5038642;28;20017;-67
2022/12/03 06:22:17;;;;;;;11.70;6.05;;;1.70;99.90;;;;;;5031891;28;20554;-66
2022/12/03 06:24:43;;;;;;;12.07;5.85;;;1.70;99.90;;;;;;5029490;28;20117;-65
2022/12/03 06:27:08;;;;;;;11.73;5.55;;;1.70;99.90;;;;;;5030897;28;20037;-65
2022/12/03 06:29:34;;;;;;;11.88;6.05;;;1.70;99.90;;;;;;5029872;28;20032;-66
2022/12/03 06:32:00;;;;;;;14.45;6.28;;;1.60;99.90;;;;;;5027954;28;20049;-66
2022/12/03 06:34:25;;;;;;;14.27;7.03;;;1.60;99.90;;;;;;5031982;28;20026;-66
2022/12/03 06:36:51;;;;;;;12.95;5.60;;;1.60;99.90;;;;;;5029128;28;20053;-63
2022/12/03 06:39:17;;;;;;;12.98;6.00;;;1.50;99.90;;;;;;5028265;28;20029;-66
2022/12/03 06:41:42;;;;;;;14.82;6.68;;;1.60;99.90;;;;;;5032477;28;20084;-64
2022/12/03 06:44:08;;;;;;;12.18;6.20;;;1.60;99.90;;;;;;5032273;28;20487;-64
2022/12/03 06:46:34;;;;;;;14.73;6.47;;;1.70;99.90;;;;;;5029163;28;20030;-64
2022/12/03 06:48:59;;;;;;;13.75;7.03;;;1.70;99.90;;;;;;5028551;28;20423;-65
2022/12/03 06:51:25;;;;;;;11.07;5.72;;;1.80;99.90;;;;;;5024589;28;20056;-62
2022/12/03 06:53:50;;;;;;;15.10;6.32;;;1.80;99.90;;;;;;5029913;28;20041;-64
2022/12/03 06:56:16;;;;;;;13.98;6.25;;;1.70;99.90;;;;;;5025714;28;20028;-65
2022/12/03 06:58:41;;;;;;;12.13;6.13;;;1.70;99.90;;;;;;5030548;28;20379;-65
2022/12/03 07:01:07;;;;;;;15.02;6.50;;;1.80;99.90;;;;;;5023978;28;20396;-62
2022/12/03 07:03:32;;;;;;;12.30;6.03;;;1.80;99.90;;;;;;5030666;28;20392;-66
2022/12/03 07:05:58;;;;;;;14.98;6.93;;;1.80;99.90;;;;;;5026083;28;20113;-66
2022/12/03 07:08:24;;;;;;;13.70;6.65;;;1.80;99.90;;;;;;5028654;28;20036;-66
2022/12/03 07:10:49;;;;;;;13.25;6.13;;;1.70;99.90;;;;;;5032507;28;20708;-64
2022/12/03 07:13:15;;;;;;;11.40;6.28;;;1.70;99.90;;;;;;5030790;28;20024;-67
2022/12/03 07:15:40;;;;;;;14.65;6.07;;;1.80;99.90;;;;;;5031595;28;20025;-65
2022/12/03 07:18:06;;;;;;;12.93;5.55;;;1.80;99.90;;;;;;5010290;28;20356;-64
2022/12/03 07:20:31;;;;;;;13.95;6.10;;;1.80;99.90;;;;;;5031677;28;20078;-65
2022/12/03 07:22:57;;;;;;;15.70;7.22;;;1.80;99.90;;;;;;5027110;28;20041;-65
2022/12/03 07:25:22;;;;;;;18.42;6.30;;;1.80;99.90;;;;;;5030397;28;20057;-64
2022/12/03 07:27:48;;;;;;;15.23;7.07;;;1.80;99.90;;;;;;5029751;28;20029;-65
2022/12/03 07:30:14;;;;;;;13.57;6.82;;;1.80;99.90;;;;;;5029405;28;20522;-66
2022/12/03 07:32:40;;;;;;;14.93;6.55;;;1.70;99.90;;;;;;5027872;28;20021;-66
2022/12/03 07:35:06;;;;;;;13.07;6.43;;;1.80;99.90;;;;;;5028316;28;20505;-64
2022/12/03 07:37:35;;;;;;;14.88;6.72;;;1.80;99.90;;;;;;5030328;28;20033;-66
2022/12/03 07:40:01;;;;;;;14.93;6.47;;;1.80;99.90;;;;;;5030320;28;20048;-65
2022/12/03 07:42:26;;;;;;;13.98;6.10;;;1.90;99.90;;;;;;5030005;28;20021;-66
2022/12/03 07:44:52;;;;;;;13.25;6.32;;;1.90;99.90;;;;;;5031641;28;20021;-64
2022/12/03 07:47:18;;;;;;;10.57;5.25;;;1.90;99.90;;;;;;5028641;28;20025;-66
2022/12/03 07:49:43;;;;;;;16.52;7.35;;;2.00;99.90;;;;;;5029163;28;20100;-66
2022/12/03 07:52:09;;;;;;;15.70;6.38;;;2.00;99.90;;;;;;5029997;28;20030;-66
2022/12/03 07:54:34;;;;;;;12.27;6.05;;;2.00;99.90;;;;;;5029957;28;20036;-67
2022/12/03 07:57:00;;;;;;;12.48;5.95;;;2.00;99.90;;;;;;5028947;28;20574;-65
2022/12/03 07:59:26;;;;;;;13.77;6.35;;;2.00;99.90;;;;;;5030514;28;20021;-57
2022/12/03 08:01:51;;;;;;;16.20;7.88;;;2.00;99.90;;;;;;4996602;28;20049;-64
2022/12/03 08:04:17;;;;;;;12.32;6.18;;;2.00;99.90;;;;;;5028244;28;20031;-65
2022/12/03 08:06:44;;;;;;;13.50;5.80;;;2.10;99.90;;;;;;5021426;28;20052;-66
2022/12/03 08:09:10;;;;;;;13.55;5.88;;;2.20;99.90;;;;;;5027578;28;20431;-66
2022/12/03 08:11:35;;;;;;;13.80;6.43;;;2.20;99.90;;;;;;5028477;28;20108;-64
2022/12/03 08:14:06;;;;;;;13.55;7.30;;;2.20;99.90;;;;;;5030501;28;20274;-64
2022/12/03 08:16:37;;;;;;;14.95;6.63;;;2.20;99.90;;;;;;5026430;28;20057;-66
2022/12/03 08:19:08;;;;;;;12.35;5.55;;;2.20;99.90;;;;;;5027813;28;20021;-65
2022/12/03 08:21:35;;;;;;;14.43;6.85;;;2.20;99.90;;;;;;5002494;28;20474;-64
2022/12/03 08:24:12;;;;;;;15.98;7.07;;;2.20;99.90;;;;;;5026648;28;20078;-65
2022/12/03 08:26:38;;;;;;;11.98;6.05;;;2.30;99.90;;;;;;5030458;28;20128;-64
2022/12/03 08:29:09;;;;;;;13.70;6.40;;;2.40;99.90;;;;;;5023689;28;20559;-65
2022/12/03 08:31:34;;;;;;;13.02;6.15;;;2.30;99.90;;;;;;5018466;28;20052;-63
2022/12/03 08:34:25;;;;;;;13.95;6.65;;;2.30;99.90;;;;;;5030343;28;20056;-64
2022/12/03 08:36:58;;;;;;;14.88;6.85;;;2.30;99.90;;;;;;5026036;28;20083;-64
2022/12/03 08:39:38;;;;;;;12.70;6.40;;;2.30;99.90;;;;;;5028483;28;20068;-66
2022/12/03 08:44:47;;;;;;;15.57;7.00;;;2.30;99.90;;;;;;5023443;28;20461;-65
2022/12/03 08:47:21;;;;;;;12.68;6.55;;;2.40;99.90;;;;;;5029482;28;20109;-64
2022/12/03 08:49:53;;;;;;;13.07;6.10;;;2.50;99.90;;;;;;5021312;28;20052;-66
2022/12/03 08:52:20;;;;;;;13.88;6.80;;;2.40;99.90;;;;;;5023461;28;20030;-65
2022/12/03 08:54:55;;;;;;;10.45;6.07;;;2.50;99.90;;;;;;5011746;28;20030;-66
2022/12/03 08:57:29;;;;;;;11.73;5.82;;;2.40;99.90;;;;;;5029488;28;20094;-65
2022/12/03 09:00:20;;;;;;;16.02;7.30;;;2.50;99.90;;;;;;5028513;28;20036;-64
2022/12/03 09:02:57;;;;;;;14.45;6.95;;;2.50;99.90;;;;;;5014153;28;20033;-66
2022/12/03 09:05:31;;;;;;;14.52;6.43;;;2.50;99.90;;;;;;5025342;28;20021;-66
2022/12/03 09:07:56;;;;;;;12.55;6.03;;;2.60;99.90;;;;;;5027348;28;20033;-65
2022/12/03 09:10:22;;;;;;;14.60;6.68;;;2.50;99.90;;;;;;5021427;28;20395;-65
2022/12/03 09:12:48;;;;;;;14.68;6.88;;;2.60;99.90;;;;;;5026952;28;20581;-64
2022/12/03 09:15:13;;;;;;;14.95;8.07;;;2.60;99.90;;;;;;5026218;28;20052;-66
2022/12/03 09:17:39;;;;;;;14.32;7.78;;;2.60;99.90;;;;;;5024422;28;20569;-66
2022/12/03 09:20:06;;;;;;;11.93;6.43;;;2.60;99.90;;;;;;5024222;28;20124;-65
2022/12/03 09:22:31;;;;;;;10.70;6.13;;;2.60;99.90;;;;;;5009671;28;20033;-66
2022/12/03 09:24:57;;;;;;;13.93;6.72;;;2.70;99.90;;;;;;5024732;28;20495;-65
2022/12/03 09:27:22;;;;;;;13.00;6.43;;;2.70;99.90;;;;;;5026162;28;20031;-65
2022/12/03 09:29:49;;;;;;;13.88;6.35;;;2.60;99.90;;;;;;5027129;28;20506;-65
2022/12/03 09:32:14;;;;;;;16.92;7.65;;;2.60;99.90;;;;;;5027074;28;20029;-65
2022/12/03 09:34:41;;;;;;;17.75;7.43;;;2.60;99.90;;;;;;5027800;28;20498;-66
2022/12/03 09:37:07;;;;;;;14.07;7.20;;;2.60;99.90;;;;;;5026091;28;20053;-66
2022/12/03 09:39:32;;;;;;;13.95;6.22;;;2.60;99.90;;;;;;5023837;28;20507;-66
2022/12/03 09:41:58;;;;;;;13.25;6.72;;;2.70;99.90;;;;;;5027539;28;20034;-66
2022/12/03 09:44:27;;;;;;;15.70;7.47;;;2.70;99.90;;;;;;5025434;28;20033;-65
2022/12/03 09:46:52;;;;;;;13.57;6.68;;;2.70;99.90;;;;;;5024208;28;20061;-64
2022/12/03 09:49:18;;;;;;;13.80;6.55;;;2.70;99.90;;;;;;5025573;28;20111;-66
2022/12/03 09:51:45;;;;;;;16.13;7.03;;;2.70;99.90;;;;;;5026000;28;20033;-65
2022/12/03 09:54:22;;;;;;;12.32;6.55;;;2.70;99.90;;;;;;5021008;28;20708;-66
2022/12/03 09:56:48;;;;;;;13.93;6.88;;;2.80;99.90;;;;;;5026992;28;20021;-65
2022/12/03 09:59:14;;;;;;;15.30;7.38;;;2.90;99.90;;;;;;5027510;28;20562;-66
2022/12/03 10:01:40;;;;;;;13.65;7.05;;;2.80;99.90;;;;;;5007902;28;20046;-65
2022/12/03 10:04:06;;;;;;;16.85;8.75;;;2.80;99.90;;;;;;5025101;28;20031;-64
2022/12/03 10:06:32;;;;;;;17.08;8.88;;;2.80;99.90;;;;;;5024505;28;20749;-64
2022/12/03 10:08:58;;;;;;;31.63;19.35;;;2.90;99.90;;;;;;5023488;28;20726;-64
2022/12/03 10:11:25;;;;;;;17.58;8.43;;;2.90;99.90;;;;;;5027398;28;20031;-65
2022/12/03 10:13:53;;;;;;;14.55;7.18;;;2.80;99.90;;;;;;5026429;28;20033;-64
2022/12/03 10:16:20;;;;;;;18.60;8.95;;;2.90;99.90;;;;;;5026983;28;20029;-65
2022/12/03 10:18:52;;;;;;;15.15;7.43;;;2.90;99.90;;;;;;5025039;28;20467;-64
2022/12/03 10:21:19;;;;;;;23.15;10.27;;;2.90;99.90;;;;;;5024780;28;20025;-64
2022/12/03 10:23:45;;;;;;;14.98;8.20;;;2.90;99.90;;;;;;5008088;28;20032;-66
2022/12/03 10:26:11;;;;;;;16.73;7.80;;;2.90;99.90;;;;;;5028633;28;20026;-64
2022/12/03 10:28:40;;;;;;;15.18;7.13;;;3.00;99.90;;;;;;5023640;28;20548;-65
2022/12/03 10:31:09;;;;;;;17.88;8.02;;;3.00;99.90;;;;;;5002430;28;20419;-65
2022/12/03 10:33:40;;;;;;;13.75;7.07;;;3.10;99.90;;;;;;5025162;28;20430;-65
2022/12/03 10:36:25;;;;;;;15.10;8.25;;;3.10;99.90;;;;;;5020572;28;20088;-65
2022/12/03 10:39:13;;;;;;;16.52;7.82;;;3.20;99.90;;;;;;5024714;28;20049;-66
2022/12/03 10:41:40;;;;;;;14.38;7.28;;;3.30;99.90;;;;;;5028486;28;20029;-65
2022/12/03 10:44:29;;;;;;;14.93;7.40;;;3.30;99.90;;;;;;5029709;28;20484;-66
2022/12/03 10:47:05;;;;;;;17.42;7.57;;;3.30;99.90;;;;;;5031451;28;20029;-65
2022/12/03 10:49:31;;;;;;;15.20;8.48;;;3.40;99.90;;;;;;5031451;28;20026;-62
2022/12/03 10:51:57;;;;;;;19.83;8.88;;;3.40;99.90;;;;;;5032220;28;20076;-64
2022/12/03 10:54:25;;;;;;;14.35;7.20;;;3.20;99.90;;;;;;5027530;28;20029;-64
2022/12/03 10:56:52;;;;;;;16.80;7.47;;;3.20;99.90;;;;;;5029359;28;20045;-66
2022/12/03 10:59:23;;;;;;;16.30;8.05;;;3.30;99.90;;;;;;5027656;28;20101;-66
2022/12/03 11:01:49;;;;;;;15.43;8.00;;;3.30;99.90;;;;;;5027296;28;20396;-67
2022/12/03 11:04:35;;;;;;;16.50;8.13;;;3.30;99.90;;;;;;5022141;28;20029;-66
2022/12/03 11:07:02;;;;;;;19.77;8.20;;;3.30;99.90;;;;;;5042599;23;20045;-66
2022/12/03 11:09:31;;;;;;;17.65;8.73;;;3.30;99.90;;;;;;5017473;28;20044;-65
2022/12/03 11:12:06;;;;;;;21.40;8.57;;;3.40;99.90;;;;;;5020022;28;20431;-66
2022/12/03 11:14:51;;;;;;;19.52;8.68;;;3.40;99.90;;;;;;5009176;28;20033;-66
2022/12/03 11:17:52;;;;;;;18.67;8.68;;;3.40;99.90;;;;;;5023582;28;20025;-69
2022/12/03 11:20:23;;;;;;;17.90;8.70;;;3.40;99.90;;;;;;4969372;28;20153;-68
2022/12/03 11:22:53;;;;;;;17.50;8.77;;;3.30;99.90;;;;;;4998695;28;20399;-66
2022/12/03 11:25:25;;;;;;;19.75;9.88;;;3.40;99.90;;;;;;5027150;28;20498;-69
2022/12/03 11:28:12;;;;;;;19.67;9.48;;;3.30;99.90;;;;;;5030412;28;20025;-69
2022/12/03 11:30:50;;;;;;;18.98;8.68;;;3.30;99.90;;;;;;5027191;28;20025;-68
2022/12/03 11:33:26;;;;;;;19.33;8.50;;;3.30;99.90;;;;;;5024709;28;20029;-68
2022/12/03 11:36:03;;;;;;;23.85;9.90;;;3.30;99.90;;;;;;5022752;28;20021;-66
2022/12/03 11:38:43;;;;;;;19.90;9.07;;;3.30;99.90;;;;;;5021735;28;20025;-66
2022/12/03 11:41:11;;;;;;;20.10;9.35;;;3.30;99.90;;;;;;5024992;28;20068;-66
2022/12/03 11:43:51;;;;;;;20.85;9.10;;;3.20;99.90;;;;;;5010382;28;20029;-66
2022/12/03 11:46:17;;;;;;;20.85;10.02;;;3.30;99.90;;;;;;5023829;28;20100;-66
2022/12/03 11:48:44;;;;;;;19.58;9.75;;;3.20;99.90;;;;;;5001933;28;20128;-66
2022/12/03 11:51:15;;;;;;;18.83;9.23;;;3.30;99.90;;;;;;5021429;28;20116;-66
2022/12/03 11:53:42;;;;;;;20.92;9.80;;;3.30;99.90;;;;;;5021537;28;20029;-66
2022/12/03 11:56:14;;;;;;;23.75;10.88;;;3.40;99.90;;;;;;5024074;28;20036;-66
2022/12/03 11:58:42;;;;;;;24.98;10.38;;;3.40;99.90;;;;;;5026419;28;20048;-68
2022/12/03 12:01:08;;;;;;;22.63;9.95;;;3.60;99.90;;;;;;5022914;28;20020;-68
2022/12/03 12:03:40;;;;;;;21.88;9.52;;;3.60;99.90;;;;;;5016136;28;20343;-68
2022/12/03 12:06:12;;;;;;;19.33;8.75;;;3.60;99.90;;;;;;5025126;28;20034;-68
2022/12/03 12:08:51;;;;;;;23.60;11.35;;;3.60;99.90;;;;;;5007511;28;20029;-68
2022/12/03 12:11:37;;;;;;;20.00;10.20;;;3.70;99.90;;;;;;5023940;28;20029;-67
2022/12/03 12:14:05;;;;;;;24.00;10.55;;;3.70;99.90;;;;;;5021921;28;20025;-68
2022/12/03 12:16:38;;;;;;;20.27;9.95;;;3.60;99.90;;;;;;5010406;28;20113;-69
2022/12/03 12:19:25;;;;;;;22.02;10.25;;;3.60;99.90;;;;;;5022654;28;20037;-67
2022/12/03 12:21:51;;;;;;;18.45;9.45;;;3.50;99.90;;;;;;5021743;28;20030;-66
2022/12/03 12:24:39;;;;;;;24.00;10.88;;;3.50;99.90;;;;;;5028718;28;20057;-67
2022/12/03 12:27:10;;;;;;;21.20;9.93;;;3.60;99.90;;;;;;5003387;28;20033;-69
2022/12/03 12:29:37;;;;;;;23.60;10.50;;;3.50;99.90;;;;;;5024893;28;20509;-66
2022/12/03 12:32:09;;;;;;;22.02;10.85;;;3.30;99.90;;;;;;5026422;28;20495;-68
2022/12/03 12:34:44;;;;;;;18.77;10.15;;;3.30;99.90;;;;;;5018498;28;20033;-68
2022/12/03 12:37:18;;;;;;;24.90;10.88;;;3.40;99.90;;;;;;5027438;28;20021;-68
2022/12/03 12:39:44;;;;;;;22.30;10.98;;;3.30;99.90;;;;;;5028079;28;20110;-68
2022/12/03 12:42:34;;;;;;;23.05;9.70;;;3.50;99.90;;;;;;5018097;28;20056;-68
2022/12/03 12:45:21;;;;;;;27.30;11.15;;;3.50;99.90;;;;;;5010369;28;20119;-69
2022/12/03 12:48:07;;;;;;;22.55;10.95;;;3.40;99.90;;;;;;5025917;28;20034;-67
2022/12/03 12:50:33;;;;;;;22.00;9.65;;;3.40;99.90;;;;;;4973185;28;20143;-68
2022/12/03 12:53:07;;;;;;;20.90;10.07;;;3.30;99.90;;;;;;5007565;28;20029;-69
2022/12/03 12:55:32;;;;;;;24.98;10.65;;;3.30;99.90;;;;;;5023312;28;20087;-68
2022/12/03 12:58:04;;;;;;;23.55;10.70;;;3.20;99.90;;;;;;5027321;28;20449;-67
2022/12/03 13:00:30;;;;;;;24.75;11.35;;;3.20;99.90;;;;;;5024201;28;20029;-66
2022/12/03 13:03:01;;;;;;;24.42;11.40;;;3.20;99.90;;;;;;5023522;28;20014;-66
2022/12/03 13:05:55;;;;;;;23.63;10.95;;;3.20;99.90;;;;;;5025145;28;20496;-65
2022/12/03 13:08:48;;;;;;;20.60;10.52;;;3.20;99.90;;;;;;5015686;28;20102;-65
2022/12/03 13:11:33;;;;;;;25.05;12.00;;;3.30;99.90;;;;;;5021543;28;20049;-66
2022/12/03 13:14:19;;;;;;;21.42;10.27;;;3.30;99.90;;;;;;5028331;28;20037;-66
2022/12/03 13:16:46;;;;;;;23.92;9.45;;;3.40;99.90;;;;;;5008588;28;20029;-66